sensor_id;sensor_type;location;lat;lon;timestamp;P1;durP1;ratioP1;P2;durP2;ratioP2
5878;SDS011;2965;42.640;23.370;2023-10-09T04:02:15;1.60;;;1.50;;
5878;SDS011;2965;42.640;23.370;2023-10-09T04:04:41;1.50;;;1.40;;
5878;SDS011;2965;42.640;23.370;2023-10-09T04:07:12;14.10;;;1.63;;
5878;SDS011;2965;42.640;23.370;2023-10-09T04:09:39;2.40;;;1.60;;
5878;SDS011;2965;42.640;23.370;2023-10-09T04:12:09;9.60;;;1.50;;
5878;SDS011;2965;42.640;23.370;2023-10-09T04:14:35;1.40;;;1.30;;
5878;SDS011;2965;42.640;23.370;2023-10-09T04:17:20;2.50;;;2.30;;
5878;SDS011;2965;42.640;23.370;2023-10-09T04:19:58;2.60;;;1.33;;
5878;SDS011;2965;42.640;23.370;2023-10-09T04:22:47;3.00;;;1.10;;
5878;SDS011;2965;42.640;23.370;2023-10-09T04:25:19;3.30;;;1.60;;
5878;SDS011;2965;42.640;23.370;2023-10-09T04:27:59;1.50;;;1.40;;
5878;SDS011;2965;42.640;23.370;2023-10-09T04:30:37;1.57;;;1.47;;
5878;SDS011;2965;42.640;23.370;2023-10-09T04:33:08;1.90;;;1.80;;
5878;SDS011;2965;42.640;23.370;2023-10-09T04:35:53;1.90;;;1.80;;
5878;SDS011;2965;42.640;23.370;2023-10-09T04:38:40;6.50;;;3.97;;
5878;SDS011;2965;42.640;23.370;2023-10-09T04:41:18;2.70;;;1.63;;
5878;SDS011;2965;42.640;23.370;2023-10-09T04:43:52;5.63;;;1.43;;
5878;SDS011;2965;42.640;23.370;2023-10-09T04:46:28;3.93;;;2.00;;
5878;SDS011;2965;42.640;23.370;2023-10-09T04:48:56;1.70;;;1.60;;
5878;SDS011;2965;42.640;23.370;2023-10-09T04:51:40;1.80;;;1.70;;
5878;SDS011;2965;42.640;23.370;2023-10-09T04:54:24;1.90;;;1.80;;
5878;SDS011;2965;42.640;23.370;2023-10-09T04:57:04;1.90;;;1.70;;
5878;SDS011;2965;42.640;23.370;2023-10-09T04:59:29;3.53;;;1.60;;
5878;SDS011;2965;42.640;23.370;2023-10-09T05:01:55;3.10;;;2.20;;
5878;SDS011;2965;42.640;23.370;2023-10-09T05:04:24;2.00;;;1.90;;
5878;SDS011;2965;42.640;23.370;2023-10-09T05:07:02;2.23;;;2.13;;
5878;SDS011;2965;42.640;23.370;2023-10-09T05:09:47;1.40;;;1.30;;
5878;SDS011;2965;42.640;23.370;2023-10-09T05:12:28;1.87;;;1.77;;
5878;SDS011;2965;42.640;23.370;2023-10-09T05:14:54;2.37;;;2.27;;
5878;SDS011;2965;42.640;23.370;2023-10-09T05:17:33;18.57;;;1.67;;
5878;SDS011;2965;42.640;23.370;2023-10-09T05:20:04;1.47;;;1.37;;
5878;SDS011;2965;42.640;23.370;2023-10-09T05:22:49;1.90;;;1.77;;
5878;SDS011;2965;42.640;23.370;2023-10-09T05:25:27;5.23;;;4.20;;
5878;SDS011;2965;42.640;23.370;2023-10-09T05:28:25;8.63;;;1.77;;
5878;SDS011;2965;42.640;23.370;2023-10-09T05:30:56;1.20;;;1.10;;
5878;SDS011;2965;42.640;23.370;2023-10-09T05:33:37;1.40;;;1.30;;
5878;SDS011;2965;42.640;23.370;2023-10-09T05:36:04;1.43;;;1.33;;
5878;SDS011;2965;42.640;23.370;2023-10-09T05:38:39;1.60;;;1.50;;
5878;SDS011;2965;42.640;23.370;2023-10-09T05:41:11;2.13;;;1.50;;
5878;SDS011;2965;42.640;23.370;2023-10-09T05:43:56;1.63;;;1.27;;
5878;SDS011;2965;42.640;23.370;2023-10-09T05:46:40;4.50;;;1.40;;
5878;SDS011;2965;42.640;23.370;2023-10-09T05:49:27;2.10;;;1.57;;
5878;SDS011;2965;42.640;23.370;2023-10-09T05:52:11;1.93;;;1.83;;
5878;SDS011;2965;42.640;23.370;2023-10-09T05:54:55;2.80;;;2.60;;
5878;SDS011;2965;42.640;23.370;2023-10-09T05:57:39;1.87;;;1.77;;
5878;SDS011;2965;42.640;23.370;2023-10-09T06:00:23;2.30;;;1.57;;
5878;SDS011;2965;42.640;23.370;2023-10-09T06:03:07;1.73;;;1.63;;
5878;SDS011;2965;42.640;23.370;2023-10-09T06:05:48;3.63;;;1.50;;
5878;SDS011;2965;42.640;23.370;2023-10-09T06:08:26;1.17;;;1.17;;
5878;SDS011;2965;42.640;23.370;2023-10-09T06:11:08;1.10;;;1.00;;
5878;SDS011;2965;42.640;23.370;2023-10-09T06:13:57;1.40;;;1.30;;
5878;SDS011;2965;42.640;23.370;2023-10-09T06:16:38;1.37;;;1.20;;
5878;SDS011;2965;42.640;23.370;2023-10-09T06:19:04;1.30;;;1.20;;
5878;SDS011;2965;42.640;23.370;2023-10-09T06:21:36;1.53;;;1.43;;
5878;SDS011;2965;42.640;23.370;2023-10-09T06:24:04;1.30;;;1.20;;
5878;SDS011;2965;42.640;23.370;2023-10-09T06:26:43;1.80;;;1.53;;
5878;SDS011;2965;42.640;23.370;2023-10-09T06:29:25;2.30;;;1.30;;
5878;SDS011;2965;42.640;23.370;2023-10-09T06:32:15;1.70;;;1.60;;
5878;SDS011;2965;42.640;23.370;2023-10-09T06:34:49;1.67;;;1.57;;
5878;SDS011;2965;42.640;23.370;2023-10-09T06:37:40;1.43;;;1.33;;
5878;SDS011;2965;42.640;23.370;2023-10-09T06:40:25;1.80;;;1.70;;
5878;SDS011;2965;42.640;23.370;2023-10-09T06:43:09;4.30;;;1.50;;
5878;SDS011;2965;42.640;23.370;2023-10-09T06:45:46;3.13;;;2.13;;
5878;SDS011;2965;42.640;23.370;2023-10-09T06:48:19;1.77;;;1.67;;
5878;SDS011;2965;42.640;23.370;2023-10-09T06:51:04;3.40;;;1.60;;
5878;SDS011;2965;42.640;23.370;2023-10-09T06:53:37;1.73;;;1.63;;
5878;SDS011;2965;42.640;23.370;2023-10-09T06:56:19;2.70;;;1.50;;
5878;SDS011;2965;42.640;23.370;2023-10-09T06:59:08;2.50;;;1.77;;
5878;SDS011;2965;42.640;23.370;2023-10-09T07:01:47;2.40;;;1.80;;
5878;SDS011;2965;42.640;23.370;2023-10-09T07:04:36;2.30;;;2.20;;
5878;SDS011;2965;42.640;23.370;2023-10-09T07:07:01;3.90;;;1.40;;
5878;SDS011;2965;42.640;23.370;2023-10-09T07:09:32;3.40;;;1.97;;
5878;SDS011;2965;42.640;23.370;2023-10-09T07:12:08;1.60;;;1.50;;
5878;SDS011;2965;42.640;23.370;2023-10-09T07:14:51;1.60;;;1.50;;
5878;SDS011;2965;42.640;23.370;2023-10-09T07:17:16;4.13;;;1.40;;
5878;SDS011;2965;42.640;23.370;2023-10-09T07:19:48;5.90;;;1.70;;
5878;SDS011;2965;42.640;23.370;2023-10-09T07:22:15;3.33;;;1.47;;
5878;SDS011;2965;42.640;23.370;2023-10-09T07:24:49;1.50;;;1.30;;
5878;SDS011;2965;42.640;23.370;2023-10-09T07:27:36;4.40;;;1.77;;
5878;SDS011;2965;42.640;23.370;2023-10-09T07:30:27;1.83;;;1.73;;
5878;SDS011;2965;42.640;23.370;2023-10-09T07:32:55;1.37;;;1.27;;
5878;SDS011;2965;42.640;23.370;2023-10-09T07:35:38;1.93;;;1.83;;
5878;SDS011;2965;42.640;23.370;2023-10-09T07:38:08;1.47;;;1.37;;
5878;SDS011;2965;42.640;23.370;2023-10-09T07:40:38;1.83;;;1.73;;
5878;SDS011;2965;42.640;23.370;2023-10-09T07:43:27;3.07;;;2.00;;
5878;SDS011;2965;42.640;23.370;2023-10-09T07:46:09;1.70;;;1.60;;
5878;SDS011;2965;42.640;23.370;2023-10-09T07:48:55;2.77;;;1.87;;
5878;SDS011;2965;42.640;23.370;2023-10-09T07:51:22;1.80;;;1.70;;
5878;SDS011;2965;42.640;23.370;2023-10-09T07:53:49;2.10;;;2.00;;
5878;SDS011;2965;42.640;23.370;2023-10-09T07:56:32;2.80;;;1.60;;
5878;SDS011;2965;42.640;23.370;2023-10-09T07:59:10;3.23;;;1.63;;
5878;SDS011;2965;42.640;23.370;2023-10-09T08:01:40;1.80;;;1.70;;
5878;SDS011;2965;42.640;23.370;2023-10-09T08:04:17;1.70;;;1.60;;
5878;SDS011;2965;42.640;23.370;2023-10-09T08:07:07;1.30;;;1.20;;
5878;SDS011;2965;42.640;23.370;2023-10-09T08:09:34;3.97;;;1.50;;
5878;SDS011;2965;42.640;23.370;2023-10-09T08:12:36;6.63;;;1.77;;
5878;SDS011;2965;42.640;23.370;2023-10-09T08:15:13;1.13;;;1.03;;
5878;SDS011;2965;42.640;23.370;2023-10-09T08:17:45;1.60;;;1.50;;
5878;SDS011;2965;42.640;23.370;2023-10-09T08:20:24;3.80;;;1.10;;
5878;SDS011;2965;42.640;23.370;2023-10-09T08:22:55;1.50;;;1.40;;
5878;SDS011;2965;42.640;23.370;2023-10-09T08:25:24;1.87;;;1.77;;
5878;SDS011;2965;42.640;23.370;2023-10-09T08:27:52;4.03;;;1.33;;
5878;SDS011;2965;42.640;23.370;2023-10-09T08:30:22;1.60;;;1.50;;
5878;SDS011;2965;42.640;23.370;2023-10-09T08:32:51;3.77;;;1.33;;
5878;SDS011;2965;42.640;23.370;2023-10-09T08:35:29;2.00;;;1.90;;
5878;SDS011;2965;42.640;23.370;2023-10-09T08:37:56;2.07;;;1.60;;
5878;SDS011;2965;42.640;23.370;2023-10-09T08:40:33;4.83;;;1.73;;
5878;SDS011;2965;42.640;23.370;2023-10-09T08:43:06;1.83;;;1.60;;
5878;SDS011;2965;42.640;23.370;2023-10-09T08:45:38;1.30;;;1.20;;
5878;SDS011;2965;42.640;23.370;2023-10-09T08:48:06;3.40;;;1.67;;
5878;SDS011;2965;42.640;23.370;2023-10-09T08:50:32;1.77;;;1.67;;
5878;SDS011;2965;42.640;23.370;2023-10-09T08:53:00;1.60;;;1.50;;
5878;SDS011;2965;42.640;23.370;2023-10-09T08:55:26;1.50;;;1.40;;
5878;SDS011;2965;42.640;23.370;2023-10-09T08:57:51;1.67;;;1.57;;
5878;SDS011;2965;42.640;23.370;2023-10-09T09:00:17;1.57;;;1.47;;
5878;SDS011;2965;42.640;23.370;2023-10-09T09:02:57;2.07;;;1.43;;
5878;SDS011;2965;42.640;23.370;2023-10-09T09:05:25;1.20;;;1.10;;
5878;SDS011;2965;42.640;23.370;2023-10-09T09:07:53;9.63;;;1.67;;
5878;SDS011;2965;42.640;23.370;2023-10-09T09:10:27;2.20;;;2.10;;
5878;SDS011;2965;42.640;23.370;2023-10-09T09:13:03;1.30;;;1.20;;
5878;SDS011;2965;42.640;23.370;2023-10-09T09:15:30;3.67;;;1.60;;
5878;SDS011;2965;42.640;23.370;2023-10-09T09:18:03;1.57;;;1.47;;
5878;SDS011;2965;42.640;23.370;2023-10-09T09:20:34;1.50;;;1.40;;
5878;SDS011;2965;42.640;23.370;2023-10-09T09:23:04;1.80;;;1.70;;
5878;SDS011;2965;42.640;23.370;2023-10-09T09:26:06;2.83;;;1.50;;
5878;SDS011;2965;42.640;23.370;2023-10-09T09:28:28;1.70;;;1.60;;
5878;SDS011;2965;42.640;23.370;2023-10-09T09:31:07;1.30;;;1.20;;
5878;SDS011;2965;42.640;23.370;2023-10-09T09:33:47;1.70;;;1.60;;
5878;SDS011;2965;42.640;23.370;2023-10-09T09:36:23;1.50;;;1.40;;
5878;SDS011;2965;42.640;23.370;2023-10-09T09:38:51;8.00;;;1.50;;
5878;SDS011;2965;42.640;23.370;2023-10-09T09:41:26;3.33;;;1.70;;
5878;SDS011;2965;42.640;23.370;2023-10-09T09:43:55;1.33;;;1.23;;
5878;SDS011;2965;42.640;23.370;2023-10-09T09:46:22;1.20;;;1.10;;
5878;SDS011;2965;42.640;23.370;2023-10-09T09:48:58;4.93;;;1.70;;
5878;SDS011;2965;42.640;23.370;2023-10-09T09:51:25;1.90;;;1.30;;
5878;SDS011;2965;42.640;23.370;2023-10-09T09:53:54;1.50;;;1.40;;
5878;SDS011;2965;42.640;23.370;2023-10-09T09:56:20;1.90;;;1.47;;
5878;SDS011;2965;42.640;23.370;2023-10-09T09:58:49;2.50;;;1.57;;
5878;SDS011;2965;42.640;23.370;2023-10-09T10:01:21;12.67;;;2.17;;
5878;SDS011;2965;42.640;23.370;2023-10-09T10:03:54;1.70;;;1.53;;
5878;SDS011;2965;42.640;23.370;2023-10-09T10:06:24;1.40;;;1.30;;
5878;SDS011;2965;42.640;23.370;2023-10-09T10:08:54;1.63;;;1.30;;
5878;SDS011;2965;42.640;23.370;2023-10-09T10:14:09;3.73;;;1.40;;
5878;SDS011;2965;42.640;23.370;2023-10-09T10:22:28;3.20;;;1.70;;
5878;SDS011;2965;42.640;23.370;2023-10-09T10:24:58;3.33;;;1.23;;
5878;SDS011;2965;42.640;23.370;2023-10-09T10:27:27;1.60;;;1.50;;
5878;SDS011;2965;42.640;23.370;2023-10-09T10:32:57;1.57;;;1.47;;
5878;SDS011;2965;42.640;23.370;2023-10-09T10:35:37;3.70;;;1.47;;
5878;SDS011;2965;42.640;23.370;2023-10-09T10:41:35;1.90;;;1.43;;
5878;SDS011;2965;42.640;23.370;2023-10-09T10:43:56;4.50;;;1.77;;
5878;SDS011;2965;42.640;23.370;2023-10-09T10:46:24;2.70;;;1.90;;
5878;SDS011;2965;42.640;23.370;2023-10-09T10:48:55;1.47;;;1.37;;
5878;SDS011;2965;42.640;23.370;2023-10-09T10:51:25;7.20;;;1.70;;
5878;SDS011;2965;42.640;23.370;2023-10-09T10:54:08;2.20;;;2.10;;
5878;SDS011;2965;42.640;23.370;2023-10-09T10:56:52;4.73;;;2.17;;
5878;SDS011;2965;42.640;23.370;2023-10-09T10:59:18;1.60;;;1.50;;
5878;SDS011;2965;42.640;23.370;2023-10-09T11:01:51;1.60;;;1.50;;
5878;SDS011;2965;42.640;23.370;2023-10-09T11:04:45;1.30;;;1.20;;
5878;SDS011;2965;42.640;23.370;2023-10-09T11:07:12;1.83;;;1.73;;
5878;SDS011;2965;42.640;23.370;2023-10-09T11:09:56;2.87;;;2.67;;
5878;SDS011;2965;42.640;23.370;2023-10-09T11:15:29;1.63;;;1.53;;
5878;SDS011;2965;42.640;23.370;2023-10-09T11:18:22;3.53;;;1.57;;
5878;SDS011;2965;42.640;23.370;2023-10-09T11:20:52;1.67;;;1.53;;
5878;SDS011;2965;42.640;23.370;2023-10-09T11:23:42;1.50;;;1.37;;
5878;SDS011;2965;42.640;23.370;2023-10-09T11:26:31;2.30;;;1.57;;
5878;SDS011;2965;42.640;23.370;2023-10-09T11:29:14;1.97;;;1.83;;
5878;SDS011;2965;42.640;23.370;2023-10-09T11:34:26;2.43;;;2.33;;
5878;SDS011;2965;42.640;23.370;2023-10-09T11:36:57;3.20;;;2.13;;
5878;SDS011;2965;42.640;23.370;2023-10-09T11:39:37;1.87;;;1.77;;
5878;SDS011;2965;42.640;23.370;2023-10-09T11:42:16;2.43;;;2.33;;
5878;SDS011;2965;42.640;23.370;2023-10-09T11:45:00;2.23;;;2.13;;
5878;SDS011;2965;42.640;23.370;2023-10-09T11:47:49;2.00;;;1.90;;
5878;SDS011;2965;42.640;23.370;2023-10-09T11:50:22;3.53;;;3.23;;
5878;SDS011;2965;42.640;23.370;2023-10-09T11:53:08;2.73;;;2.53;;
5878;SDS011;2965;42.640;23.370;2023-10-09T11:55:35;3.10;;;2.83;;
5878;SDS011;2965;42.640;23.370;2023-10-09T11:58:01;3.30;;;3.10;;
5878;SDS011;2965;42.640;23.370;2023-10-09T12:00:27;2.90;;;2.70;;
5878;SDS011;2965;42.640;23.370;2023-10-09T12:02:56;3.00;;;2.90;;
5878;SDS011;2965;42.640;23.370;2023-10-09T12:05:30;3.80;;;3.60;;
5878;SDS011;2965;42.640;23.370;2023-10-09T12:07:56;4.40;;;3.00;;
5878;SDS011;2965;42.640;23.370;2023-10-09T12:10:22;4.10;;;3.90;;
5878;SDS011;2965;42.640;23.370;2023-10-09T12:12:54;3.63;;;3.53;;
5878;SDS011;2965;42.640;23.370;2023-10-09T12:15:23;4.10;;;3.53;;
5878;SDS011;2965;42.640;23.370;2023-10-09T12:17:49;2.30;;;2.20;;
5878;SDS011;2965;42.640;23.370;2023-10-09T12:20:15;3.57;;;2.43;;
5878;SDS011;2965;42.640;23.370;2023-10-09T12:23:04;2.67;;;2.53;;
5878;SDS011;2965;42.640;23.370;2023-10-09T12:25:30;3.83;;;2.20;;
5878;SDS011;2965;42.640;23.370;2023-10-09T12:27:59;2.70;;;2.37;;
5878;SDS011;2965;42.640;23.370;2023-10-09T12:30:27;2.80;;;2.70;;
5878;SDS011;2965;42.640;23.370;2023-10-09T12:32:56;3.13;;;2.60;;
5878;SDS011;2965;42.640;23.370;2023-10-09T12:35:25;2.57;;;2.47;;
5878;SDS011;2965;42.640;23.370;2023-10-09T12:37:52;2.60;;;2.50;;
5878;SDS011;2965;42.640;23.370;2023-10-09T12:40:20;3.13;;;2.97;;
5878;SDS011;2965;42.640;23.370;2023-10-09T12:42:54;2.03;;;1.93;;
5878;SDS011;2965;42.640;23.370;2023-10-09T12:45:21;3.10;;;2.00;;
5878;SDS011;2965;42.640;23.370;2023-10-09T12:47:53;2.20;;;1.80;;
5878;SDS011;2965;42.640;23.370;2023-10-09T12:50:24;1.13;;;1.03;;
5878;SDS011;2965;42.640;23.370;2023-10-09T12:52:56;11.60;;;1.50;;
5878;SDS011;2965;42.640;23.370;2023-10-09T12:55:27;3.63;;;1.37;;
5878;SDS011;2965;42.640;23.370;2023-10-09T12:58:01;4.30;;;1.43;;
5878;SDS011;2965;42.640;23.370;2023-10-09T13:00:36;2.03;;;1.80;;
5878;SDS011;2965;42.640;23.370;2023-10-09T13:03:06;1.40;;;1.30;;
5878;SDS011;2965;42.640;23.370;2023-10-09T13:05:44;2.93;;;2.17;;
5878;SDS011;2965;42.640;23.370;2023-10-09T13:08:27;4.00;;;1.50;;
5878;SDS011;2965;42.640;23.370;2023-10-09T13:10:56;4.40;;;1.30;;
5878;SDS011;2965;42.640;23.370;2023-10-09T13:13:29;19.10;;;1.53;;
5878;SDS011;2965;42.640;23.370;2023-10-09T13:16:24;6.93;;;1.70;;
5878;SDS011;2965;42.640;23.370;2023-10-09T13:21:24;1.40;;;1.30;;
5878;SDS011;2965;42.640;23.370;2023-10-09T13:23:51;2.53;;;1.37;;
5878;SDS011;2965;42.640;23.370;2023-10-09T13:26:20;1.80;;;1.70;;
5878;SDS011;2965;42.640;23.370;2023-10-09T13:28:57;1.40;;;1.30;;
5878;SDS011;2965;42.640;23.370;2023-10-09T13:31:24;2.40;;;1.10;;
5878;SDS011;2965;42.640;23.370;2023-10-09T13:33:51;3.23;;;1.30;;
5878;SDS011;2965;42.640;23.370;2023-10-09T13:36:20;2.27;;;1.17;;
5878;SDS011;2965;42.640;23.370;2023-10-09T13:38:55;1.97;;;1.87;;
5878;SDS011;2965;42.640;23.370;2023-10-09T13:41:43;1.57;;;1.47;;
5878;SDS011;2965;42.640;23.370;2023-10-09T13:44:08;3.73;;;1.60;;
5878;SDS011;2965;42.640;23.370;2023-10-09T13:46:34;4.73;;;1.90;;
5878;SDS011;2965;42.640;23.370;2023-10-09T13:49:06;1.80;;;1.30;;
5878;SDS011;2965;42.640;23.370;2023-10-09T13:51:40;3.27;;;1.63;;
5878;SDS011;2965;42.640;23.370;2023-10-09T13:54:12;3.70;;;1.83;;
5878;SDS011;2965;42.640;23.370;2023-10-09T13:57:08;2.20;;;1.67;;
5878;SDS011;2965;42.640;23.370;2023-10-09T13:59:35;1.70;;;1.60;;
5878;SDS011;2965;42.640;23.370;2023-10-09T14:02:01;1.60;;;1.50;;
5878;SDS011;2965;42.640;23.370;2023-10-09T14:04:34;6.60;;;1.83;;
5878;SDS011;2965;42.640;23.370;2023-10-09T14:06:59;1.50;;;1.40;;
5878;SDS011;2965;42.640;23.370;2023-10-09T14:09:27;1.90;;;1.80;;
5878;SDS011;2965;42.640;23.370;2023-10-09T14:11:55;1.83;;;1.73;;
5878;SDS011;2965;42.640;23.370;2023-10-09T14:14:41;1.60;;;1.50;;
5878;SDS011;2965;42.640;23.370;2023-10-09T14:17:23;2.10;;;2.00;;
5878;SDS011;2965;42.640;23.370;2023-10-09T14:19:48;1.67;;;1.57;;
5878;SDS011;2965;42.640;23.370;2023-10-09T14:22:25;2.00;;;1.63;;
5878;SDS011;2965;42.640;23.370;2023-10-09T14:24:51;3.03;;;1.43;;
5878;SDS011;2965;42.640;23.370;2023-10-09T14:27:21;2.00;;;1.90;;
5878;SDS011;2965;42.640;23.370;2023-10-09T14:30:00;2.13;;;1.93;;
5878;SDS011;2965;42.640;23.370;2023-10-09T14:32:26;7.90;;;4.70;;
5878;SDS011;2965;42.640;23.370;2023-10-09T14:34:59;2.07;;;1.97;;
5878;SDS011;2965;42.640;23.370;2023-10-09T14:37:26;2.13;;;2.03;;
5878;SDS011;2965;42.640;23.370;2023-10-09T14:39:56;2.57;;;2.20;;
5878;SDS011;2965;42.640;23.370;2023-10-09T14:42:28;3.87;;;2.37;;
5878;SDS011;2965;42.640;23.370;2023-10-09T14:47:51;4.60;;;2.97;;
5878;SDS011;2965;42.640;23.370;2023-10-09T14:50:20;3.03;;;2.83;;
5878;SDS011;2965;42.640;23.370;2023-10-09T14:52:50;2.10;;;2.00;;
5878;SDS011;2965;42.640;23.370;2023-10-09T14:55:16;8.90;;;2.40;;
5878;SDS011;2965;42.640;23.370;2023-10-09T14:57:46;3.27;;;2.47;;
5878;SDS011;2965;42.640;23.370;2023-10-09T15:00:12;2.90;;;2.80;;
5878;SDS011;2965;42.640;23.370;2023-10-09T15:02:39;2.40;;;2.20;;
5878;SDS011;2965;42.640;23.370;2023-10-09T15:05:05;4.17;;;2.20;;
5878;SDS011;2965;42.640;23.370;2023-10-09T15:07:35;3.03;;;2.60;;
5878;SDS011;2965;42.640;23.370;2023-10-09T15:10:04;2.20;;;2.10;;
5878;SDS011;2965;42.640;23.370;2023-10-09T15:12:30;2.60;;;2.50;;
5878;SDS011;2965;42.640;23.370;2023-10-09T15:14:55;2.80;;;2.63;;
5878;SDS011;2965;42.640;23.370;2023-10-09T15:17:22;2.80;;;2.60;;
5878;SDS011;2965;42.640;23.370;2023-10-09T15:19:49;6.73;;;2.40;;
5878;SDS011;2965;42.640;23.370;2023-10-09T15:22:20;5.20;;;2.43;;
5878;SDS011;2965;42.640;23.370;2023-10-09T15:24:46;2.97;;;2.77;;
5878;SDS011;2965;42.640;23.370;2023-10-09T15:27:11;7.63;;;2.30;;
5878;SDS011;2965;42.640;23.370;2023-10-09T15:29:38;5.77;;;3.10;;
5878;SDS011;2965;42.640;23.370;2023-10-09T15:32:08;2.57;;;2.37;;
5878;SDS011;2965;42.640;23.370;2023-10-09T15:34:40;2.60;;;2.50;;
5878;SDS011;2965;42.640;23.370;2023-10-09T15:37:06;3.70;;;3.17;;
5878;SDS011;2965;42.640;23.370;2023-10-09T15:39:33;4.23;;;2.90;;
5878;SDS011;2965;42.640;23.370;2023-10-09T15:41:59;9.97;;;2.67;;
5878;SDS011;2965;42.640;23.370;2023-10-09T15:44:25;2.80;;;2.70;;
5878;SDS011;2965;42.640;23.370;2023-10-09T15:46:50;2.87;;;2.67;;
5878;SDS011;2965;42.640;23.370;2023-10-09T15:49:24;3.10;;;2.90;;
5878;SDS011;2965;42.640;23.370;2023-10-09T15:51:52;3.10;;;2.93;;
5878;SDS011;2965;42.640;23.370;2023-10-09T15:54:18;8.87;;;2.93;;
5878;SDS011;2965;42.640;23.370;2023-10-09T15:56:44;4.50;;;2.33;;
5878;SDS011;2965;42.640;23.370;2023-10-09T15:59:10;7.43;;;3.90;;
5878;SDS011;2965;42.640;23.370;2023-10-09T16:01:40;9.90;;;2.50;;
5878;SDS011;2965;42.640;23.370;2023-10-09T16:04:08;10.83;;;2.90;;
5878;SDS011;2965;42.640;23.370;2023-10-09T16:06:36;3.13;;;2.93;;
5878;SDS011;2965;42.640;23.370;2023-10-09T16:09:06;3.07;;;2.87;;
5878;SDS011;2965;42.640;23.370;2023-10-09T16:11:46;4.40;;;2.93;;
5878;SDS011;2965;42.640;23.370;2023-10-09T16:14:12;5.20;;;3.03;;
5878;SDS011;2965;42.640;23.370;2023-10-09T16:16:40;6.90;;;3.20;;
5878;SDS011;2965;42.640;23.370;2023-10-09T16:19:10;6.00;;;2.87;;
5878;SDS011;2965;42.640;23.370;2023-10-09T16:21:35;3.80;;;3.50;;
5878;SDS011;2965;42.640;23.370;2023-10-09T16:24:02;5.07;;;3.30;;
5878;SDS011;2965;42.640;23.370;2023-10-09T16:26:30;5.70;;;3.03;;
5878;SDS011;2965;42.640;23.370;2023-10-09T16:29:04;4.90;;;3.60;;
5878;SDS011;2965;42.640;23.370;2023-10-09T16:31:36;3.50;;;3.20;;
5878;SDS011;2965;42.640;23.370;2023-10-09T16:34:03;3.20;;;3.00;;
5878;SDS011;2965;42.640;23.370;2023-10-09T16:36:29;7.90;;;3.70;;
5878;SDS011;2965;42.640;23.370;2023-10-09T16:38:58;3.27;;;2.67;;
5878;SDS011;2965;42.640;23.370;2023-10-09T16:41:24;7.10;;;3.93;;
5878;SDS011;2965;42.640;23.370;2023-10-09T16:43:51;3.07;;;2.87;;
5878;SDS011;2965;42.640;23.370;2023-10-09T16:46:18;3.70;;;3.40;;
5878;SDS011;2965;42.640;23.370;2023-10-09T16:48:48;3.20;;;3.10;;
5878;SDS011;2965;42.640;23.370;2023-10-09T16:51:17;4.80;;;3.17;;
5878;SDS011;2965;42.640;23.370;2023-10-09T16:53:46;6.70;;;3.67;;
5878;SDS011;2965;42.640;23.370;2023-10-09T16:56:18;11.40;;;3.83;;
5878;SDS011;2965;42.640;23.370;2023-10-09T16:58:44;6.37;;;4.83;;
5878;SDS011;2965;42.640;23.370;2023-10-09T17:01:11;3.80;;;3.50;;
5878;SDS011;2965;42.640;23.370;2023-10-09T17:03:39;11.63;;;3.97;;
5878;SDS011;2965;42.640;23.370;2023-10-09T17:06:09;5.10;;;4.03;;
5878;SDS011;2965;42.640;23.370;2023-10-09T17:08:38;6.50;;;4.37;;
5878;SDS011;2965;42.640;23.370;2023-10-09T17:11:07;7.07;;;3.40;;
5878;SDS011;2965;42.640;23.370;2023-10-09T17:13:38;4.00;;;3.70;;
5878;SDS011;2965;42.640;23.370;2023-10-09T17:16:16;8.67;;;3.93;;
5878;SDS011;2965;42.640;23.370;2023-10-09T17:18:49;6.27;;;4.43;;
5878;SDS011;2965;42.640;23.370;2023-10-09T17:21:18;7.43;;;5.90;;
5878;SDS011;2965;42.640;23.370;2023-10-09T17:23:48;7.27;;;4.50;;
5878;SDS011;2965;42.640;23.370;2023-10-09T17:26:14;8.73;;;4.60;;
5878;SDS011;2965;42.640;23.370;2023-10-09T17:28:43;6.30;;;4.57;;
5878;SDS011;2965;42.640;23.370;2023-10-09T17:31:09;22.50;;;5.53;;
5878;SDS011;2965;42.640;23.370;2023-10-09T17:33:34;14.97;;;4.53;;
5878;SDS011;2965;42.640;23.370;2023-10-09T17:36:00;6.63;;;4.23;;
5878;SDS011;2965;42.640;23.370;2023-10-09T17:38:27;5.20;;;4.80;;
5878;SDS011;2965;42.640;23.370;2023-10-09T17:40:55;6.83;;;4.30;;
5878;SDS011;2965;42.640;23.370;2023-10-09T17:43:22;9.43;;;4.90;;
5878;SDS011;2965;42.640;23.370;2023-10-09T17:45:49;10.70;;;4.70;;
5878;SDS011;2965;42.640;23.370;2023-10-09T17:48:19;5.77;;;4.23;;
5878;SDS011;2965;42.640;23.370;2023-10-09T17:50:44;10.40;;;4.33;;
5878;SDS011;2965;42.640;23.370;2023-10-09T17:53:10;5.97;;;4.00;;
5878;SDS011;2965;42.640;23.370;2023-10-09T17:55:36;5.83;;;3.50;;
5878;SDS011;2965;42.640;23.370;2023-10-09T17:58:05;11.43;;;3.90;;
5878;SDS011;2965;42.640;23.370;2023-10-09T18:00:36;8.03;;;4.50;;
5878;SDS011;2965;42.640;23.370;2023-10-09T18:03:04;4.90;;;3.60;;
5878;SDS011;2965;42.640;23.370;2023-10-09T18:05:31;13.80;;;4.97;;
5878;SDS011;2965;42.640;23.370;2023-10-09T18:07:58;6.33;;;4.60;;
5878;SDS011;2965;42.640;23.370;2023-10-09T18:10:25;7.30;;;4.67;;
5878;SDS011;2965;42.640;23.370;2023-10-09T18:12:50;7.50;;;4.80;;
5878;SDS011;2965;42.640;23.370;2023-10-09T18:15:15;12.10;;;5.47;;
5878;SDS011;2965;42.640;23.370;2023-10-09T18:17:45;12.03;;;5.07;;
5878;SDS011;2965;42.640;23.370;2023-10-09T18:20:11;6.87;;;4.00;;
5878;SDS011;2965;42.640;23.370;2023-10-09T18:22:37;11.47;;;4.90;;
5878;SDS011;2965;42.640;23.370;2023-10-09T18:25:05;8.63;;;4.17;;
5878;SDS011;2965;42.640;23.370;2023-10-09T18:27:31;8.40;;;5.40;;
5878;SDS011;2965;42.640;23.370;2023-10-09T18:29:56;4.53;;;4.00;;
5878;SDS011;2965;42.640;23.370;2023-10-09T18:32:23;5.00;;;4.13;;
5878;SDS011;2965;42.640;23.370;2023-10-09T18:34:49;4.20;;;3.73;;
5878;SDS011;2965;42.640;23.370;2023-10-09T18:37:18;4.00;;;3.60;;
5878;SDS011;2965;42.640;23.370;2023-10-09T18:39:45;9.03;;;4.07;;
5878;SDS011;2965;42.640;23.370;2023-10-09T18:42:12;4.20;;;3.67;;
5878;SDS011;2965;42.640;23.370;2023-10-09T18:44:37;13.37;;;4.20;;
5878;SDS011;2965;42.640;23.370;2023-10-09T18:47:06;9.70;;;4.43;;
5878;SDS011;2965;42.640;23.370;2023-10-09T18:49:32;6.00;;;3.20;;
5878;SDS011;2965;42.640;23.370;2023-10-09T18:51:58;5.90;;;4.50;;
5878;SDS011;2965;42.640;23.370;2023-10-09T18:54:24;11.20;;;4.50;;
5878;SDS011;2965;42.640;23.370;2023-10-09T18:56:50;5.10;;;4.30;;
5878;SDS011;2965;42.640;23.370;2023-10-09T18:59:15;4.73;;;4.33;;
5878;SDS011;2965;42.640;23.370;2023-10-09T19:01:41;5.93;;;3.80;;
5878;SDS011;2965;42.640;23.370;2023-10-09T19:04:06;14.73;;;5.57;;
5878;SDS011;2965;42.640;23.370;2023-10-09T19:06:37;17.03;;;4.67;;
5878;SDS011;2965;42.640;23.370;2023-10-09T19:09:03;5.27;;;4.30;;
5878;SDS011;2965;42.640;23.370;2023-10-09T19:11:29;9.37;;;4.60;;
5878;SDS011;2965;42.640;23.370;2023-10-09T19:13:57;8.00;;;4.57;;
5878;SDS011;2965;42.640;23.370;2023-10-09T19:16:23;9.90;;;5.27;;
5878;SDS011;2965;42.640;23.370;2023-10-09T19:18:49;6.13;;;4.10;;
5878;SDS011;2965;42.640;23.370;2023-10-09T19:21:14;14.73;;;4.10;;
5878;SDS011;2965;42.640;23.370;2023-10-09T19:23:41;12.53;;;4.60;;
5878;SDS011;2965;42.640;23.370;2023-10-09T19:26:11;13.80;;;4.30;;
5878;SDS011;2965;42.640;23.370;2023-10-09T19:28:39;9.23;;;3.87;;
5878;SDS011;2965;42.640;23.370;2023-10-09T19:31:07;5.53;;;3.80;;
5878;SDS011;2965;42.640;23.370;2023-10-09T19:33:35;10.83;;;5.13;;
5878;SDS011;2965;42.640;23.370;2023-10-09T19:36:02;11.50;;;5.23;;
5878;SDS011;2965;42.640;23.370;2023-10-09T19:38:30;8.60;;;4.83;;
5878;SDS011;2965;42.640;23.370;2023-10-09T19:40:56;7.00;;;3.90;;
5878;SDS011;2965;42.640;23.370;2023-10-09T19:43:21;13.23;;;4.47;;
5878;SDS011;2965;42.640;23.370;2023-10-09T19:45:47;7.70;;;4.20;;
5878;SDS011;2965;42.640;23.370;2023-10-09T19:48:13;6.80;;;4.27;;
5878;SDS011;2965;42.640;23.370;2023-10-09T19:50:39;4.40;;;3.80;;
5878;SDS011;2965;42.640;23.370;2023-10-09T19:53:04;7.27;;;3.80;;
5878;SDS011;2965;42.640;23.370;2023-10-09T19:55:29;12.03;;;3.50;;
5878;SDS011;2965;42.640;23.370;2023-10-09T19:57:57;8.77;;;4.37;;